Pagrindinis puslapis
METAR-TAF:

METAR-TAF

Oro uostai :

Culdrose, Anglija

platuma: 50-05N, ilguma: 005-15W, Aukštis: 78 m

Dabartinis oras

Ataskaita buvo paskelbta 18 minutes, ne 09:50 UTC
Vėjas 20 kt iš Rytų/Šiaurės Rytų su gūsio iki 32 kt
Temperatūra 8°C
Drėgmė 66%
Slėgis 1031 hPa
Matomumas 10 km arba daugiau
Išsisklaidę debesys ne aukštis 2500 ft
Išsisklaidę debesys ne aukštis 3500 ft

METAR: EGDR 310950Z 06020G32KT 9999 SCT025 SCT035 08/02 Q1031 TEMPO SCT020 RMK BLU TEMPO WHT

Laikas: 11:08 (10:08 UTC)

Prognozė

Ataskaita buvo paskelbta 2 valandos ir 31 minutes, ne 07:37 UTC
Prognozė galioja nuo 31 metu 09 UTC su 31 metu 18 UTC
Vėjas 17 kt iš Šiaurės Rytų su gūsio iki 27 kt
Matomumas 10 km arba daugiau
Išsisklaidę debesys ne aukštis 3000 ft
Laikinai
nuo 31 metu 09 UTC su 31 metu 14 UTC
Išsisklaidę debesys ne aukštis 2200 ft

TAF: EGDR 310737Z 3109/3118 05017G27KT 9999 SCT030 TEMPO 3109/3114 SCT022

Orai ataskaitas ir orų prognozės (METAR, TAF).

turimą stotys yra geltonos ir raudonos taškus žemėlapyje.

Perkelti pele per norėdami pamatyti stoties vardą.

Tada spustelėkite, norėdami matyti oro stebėjimo ir prognozės.

Norėdami pakeisti žemėlapį: spustelėkite ant žalios mygtukų su juodo kryžiaus žemyn,; žalią mygtuką su brūkšneliu, jei norite nutolinti; arba žalių rodyklių gretimoms žemėlapius.


METAR-TAF: